createdAt,value
2018-05-01T00:01:43.301Z,61.97
2018-05-01T00:04:11.768Z,62.85
2018-05-01T00:06:40.176Z,63.71
2018-05-01T00:09:08.648Z,63.96
2018-05-01T00:11:37.068Z,63.64
2018-05-01T00:14:05.519Z,63.32
2018-05-01T00:16:33.968Z,61.96
2018-05-01T00:19:02.426Z,62.02
2018-05-01T00:21:30.874Z,62.57
2018-05-01T00:23:59.353Z,64.09
2018-05-01T00:26:27.769Z,62.58
2018-05-01T00:28:56.272Z,60.94
2018-05-01T00:31:24.668Z,62.29
2018-05-01T00:33:53.116Z,60.59
2018-05-01T00:36:21.566Z,59.93
2018-05-01T00:38:49.985Z,59.58
2018-05-01T00:41:18.441Z,59.90
2018-05-01T00:43:46.967Z,61.50
2018-05-01T00:46:15.383Z,60.37
2018-05-01T00:48:43.839Z,61.07
2018-05-01T00:51:12.311Z,61.73
2018-05-01T00:53:40.700Z,61.21
2018-05-01T00:56:09.149Z,61.57
2018-05-01T00:58:37.616Z,62.48
2018-05-01T01:01:06.084Z,63.25
2018-05-01T01:03:34.551Z,63.84
2018-05-01T01:06:02.971Z,64.76
2018-05-01T01:08:31.391Z,64.49
2018-05-01T01:10:59.874Z,64.33
2018-05-01T01:13:28.300Z,65.71
2018-05-01T01:15:56.744Z,65.63
2018-05-01T01:18:25.199Z,65.47
2018-05-01T01:20:53.655Z,64.67
2018-05-01T01:23:22.097Z,64.50
2018-05-01T01:25:50.529Z,64.71
2018-05-01T01:28:19.126Z,65.24
2018-05-01T01:30:47.526Z,66.31
2018-05-01T01:33:16.011Z,67.11
2018-05-01T01:35:43.936Z,66.69
2018-05-01T01:38:11.812Z,66.25
2018-05-01T01:40:39.678Z,65.69
2018-05-01T01:43:07.590Z,65.20
2018-05-01T01:45:35.519Z,65.68
2018-05-01T01:48:03.433Z,65.97
2018-05-01T01:50:31.309Z,66.33
2018-05-01T01:52:59.218Z,66.91
2018-05-01T01:55:27.072Z,67.49
2018-05-01T01:57:55.166Z,67.53
2018-05-01T02:00:23.006Z,67.98
2018-05-01T02:02:50.863Z,68.14
2018-05-01T02:05:18.731Z,69.06
2018-05-01T02:07:46.618Z,68.72
2018-05-01T02:10:14.530Z,68.33
2018-05-01T02:12:42.384Z,68.72
2018-05-01T02:15:10.269Z,69.07
2018-05-01T02:17:38.184Z,68.87
2018-05-01T02:20:06.057Z,68.93
2018-05-01T02:22:34.008Z,68.71
2018-05-01T02:25:01.876Z,69.12
2018-05-01T02:27:29.740Z,69.15
2018-05-01T02:29:57.640Z,69.04
2018-05-01T02:32:25.514Z,69.53
2018-05-01T02:34:53.419Z,69.22
2018-05-01T02:37:21.314Z,69.25
2018-05-01T02:39:49.166Z,69.26
2018-05-01T02:42:17.079Z,69.48
2018-05-01T02:44:44.980Z,69.86
2018-05-01T02:47:12.887Z,69.67
2018-05-01T02:49:40.739Z,69.62
2018-05-01T02:52:08.656Z,69.86
2018-05-01T02:54:36.567Z,69.36
2018-05-01T02:57:04.432Z,69.56
2018-05-01T02:59:32.319Z,70.85
2018-05-01T03:02:00.199Z,70.48
2018-05-01T03:04:28.126Z,70.57
2018-05-01T03:06:56.008Z,70.23
2018-05-01T03:09:23.901Z,69.23
2018-05-01T03:11:51.805Z,69.45
2018-05-01T03:14:19.715Z,68.93
2018-05-01T03:16:47.636Z,69.91
2018-05-01T03:19:15.530Z,70.66
2018-05-01T03:21:43.445Z,69.11
2018-05-01T03:24:11.316Z,68.85
2018-05-01T03:26:39.205Z,68.97
2018-05-01T03:29:07.050Z,68.73
2018-05-01T03:31:34.947Z,68.45
2018-05-01T03:34:02.855Z,68.37
2018-05-01T03:36:30.782Z,69.19
2018-05-01T03:38:58.776Z,68.88
2018-05-01T03:41:26.683Z,68.73
2018-05-01T03:43:54.587Z,67.89
2018-05-01T03:46:22.491Z,68.48
2018-05-01T03:48:50.370Z,68.15
2018-05-01T03:51:18.238Z,68.43
2018-05-01T03:53:46.143Z,68.24
2018-05-01T03:56:14.068Z,67.75
2018-05-01T03:58:41.992Z,67.73
2018-05-01T04:01:09.887Z,67.22
2018-05-01T04:03:37.774Z,66.93
2018-05-01T04:06:05.698Z,66.93
2018-05-01T04:08:33.547Z,66.38
2018-05-01T04:11:01.445Z,66.49
2018-05-01T04:13:29.310Z,66.23
2018-05-01T04:15:57.183Z,65.70
2018-05-01T04:18:25.110Z,66.30
2018-05-01T04:20:52.983Z,66.02
2018-05-01T04:23:20.847Z,67.42
2018-05-01T04:25:48.748Z,67.11
2018-05-01T04:28:16.660Z,66.44
2018-05-01T04:30:44.554Z,66.47
2018-05-01T04:33:12.454Z,66.09
2018-05-01T04:35:40.495Z,66.28
2018-05-01T04:38:08.365Z,65.15
2018-05-01T04:40:36.365Z,64.54
2018-05-01T04:43:04.228Z,63.96
2018-05-01T04:45:32.140Z,64.49
2018-05-01T04:48:00.089Z,65.55
2018-05-01T04:50:28.023Z,65.08
2018-05-01T04:52:55.961Z,63.84
2018-05-01T04:55:24.033Z,63.34
2018-05-01T04:57:51.947Z,62.49
2018-05-01T05:00:20.424Z,62.45
2018-05-01T05:02:48.348Z,61.63
2018-05-01T05:05:16.245Z,61.13
2018-05-01T05:07:44.167Z,61.00
2018-05-01T05:10:12.090Z,61.77
2018-05-01T05:12:39.976Z,63.10
2018-05-01T05:15:07.848Z,64.48
2018-05-01T05:17:35.759Z,64.11
2018-05-01T05:20:03.620Z,63.21
2018-05-01T05:22:31.501Z,61.83
2018-05-01T05:24:59.452Z,62.05
2018-05-01T05:27:27.380Z,62.09
2018-05-01T05:29:55.275Z,61.08
2018-05-01T05:32:23.228Z,60.32
2018-05-01T05:34:51.152Z,59.97
2018-05-01T05:37:19.052Z,58.24
2018-05-01T05:39:46.925Z,56.83
2018-05-01T05:42:14.891Z,56.62
2018-05-01T05:44:42.908Z,55.57
2018-05-01T05:47:11.538Z,54.97
2018-05-01T05:49:39.626Z,54.23
2018-05-01T05:52:07.703Z,53.31
2018-05-01T05:54:35.603Z,52.85
2018-05-01T05:57:03.668Z,52.45
2018-05-01T05:59:31.583Z,51.98
2018-05-01T06:01:59.545Z,51.80
2018-05-01T06:04:27.560Z,51.14
2018-05-01T06:06:55.439Z,50.80
2018-05-01T06:09:23.343Z,50.57
2018-05-01T06:11:51.211Z,51.15
2018-05-01T06:14:19.121Z,50.38
2018-05-01T06:16:47.018Z,50.47
2018-05-01T06:19:15.185Z,50.07
2018-05-01T06:21:43.137Z,49.94
2018-05-01T06:24:11.065Z,49.22
2018-05-01T06:26:38.959Z,48.11
2018-05-01T06:29:07.042Z,47.64
2018-05-01T06:31:34.979Z,47.73
2018-05-01T06:34:02.855Z,48.45
2018-05-01T06:36:30.782Z,48.80
2018-05-01T06:38:58.712Z,49.01
2018-05-01T06:41:26.659Z,48.55
2018-05-01T06:43:54.676Z,48.36
2018-05-01T06:46:22.524Z,49.32
2018-05-01T06:48:50.374Z,47.67
2018-05-01T06:51:18.298Z,47.42
2018-05-01T06:53:46.871Z,48.21
2018-05-01T06:56:14.814Z,48.68
2018-05-01T06:58:42.697Z,47.20
2018-05-01T07:01:10.606Z,46.96
2018-05-01T07:03:38.479Z,46.17
2018-05-01T07:06:06.397Z,45.28
2018-05-01T07:08:34.331Z,44.39
2018-05-01T07:11:02.295Z,43.26
2018-05-01T07:13:30.152Z,44.45
2018-05-01T07:15:58.064Z,43.46
2018-05-01T07:18:26.103Z,43.29
2018-05-01T07:20:54.037Z,42.92
2018-05-01T07:23:21.927Z,41.56
2018-05-01T07:25:49.811Z,40.71
2018-05-01T07:28:17.690Z,41.86
2018-05-01T07:30:45.756Z,41.29
2018-05-01T07:33:13.685Z,41.47
2018-05-01T07:35:41.664Z,41.77
2018-05-01T07:38:09.637Z,40.21
2018-05-01T07:40:37.634Z,40.55
2018-05-01T07:43:06.586Z,41.52
2018-05-01T07:45:34.796Z,40.98
2018-05-01T07:48:02.747Z,40.32
2018-05-01T07:50:30.680Z,40.63
2018-05-01T07:52:58.561Z,41.21
2018-05-01T07:55:26.494Z,40.40
2018-05-01T07:57:54.352Z,39.30
2018-05-01T08:00:22.323Z,40.96
2018-05-01T08:02:50.254Z,40.91
2018-05-01T08:05:18.136Z,39.96
2018-05-01T08:07:47.033Z,39.59
2018-05-01T08:10:14.921Z,39.61
2018-05-01T08:12:42.814Z,38.83
2018-05-01T08:15:11.155Z,39.05
2018-05-01T08:17:39.023Z,37.89
2018-05-01T08:20:06.960Z,37.29
2018-05-01T08:22:34.877Z,36.79
2018-05-01T08:25:02.784Z,37.05
2018-05-01T08:27:30.652Z,37.72
2018-05-01T08:30:00.021Z,37.87
2018-05-01T08:32:28.407Z,36.84
2018-05-01T08:34:56.306Z,36.78
2018-05-01T08:37:24.668Z,34.89
2018-05-01T08:39:52.532Z,34.56
2018-05-01T08:42:20.419Z,35.25
2018-05-01T08:44:48.664Z,35.43
2018-05-01T08:47:16.650Z,34.33
2018-05-01T08:49:44.542Z,34.39
2018-05-01T08:52:12.503Z,33.28
2018-05-01T08:54:41.060Z,33.13
2018-05-01T08:57:08.927Z,32.84
2018-05-01T08:59:36.930Z,32.22
2018-05-01T09:02:04.937Z,31.39
2018-05-01T09:04:32.820Z,30.57
2018-05-01T09:07:00.715Z,31.07
2018-05-01T09:09:29.486Z,30.19
2018-05-01T09:11:57.408Z,30.09
2018-05-01T09:14:25.304Z,29.52
2018-05-01T09:16:53.234Z,29.69
2018-05-01T09:19:21.123Z,30.01
2018-05-01T09:21:49.035Z,31.02
2018-05-01T09:24:16.891Z,30.84
2018-05-01T09:26:44.946Z,30.53
2018-05-01T09:29:12.815Z,28.61
2018-05-01T09:31:40.710Z,27.83
2018-05-01T09:34:08.568Z,27.72
2018-05-01T09:36:36.467Z,27.39
2018-05-01T09:39:04.375Z,26.32
2018-05-01T09:41:32.244Z,25.12
2018-05-01T09:44:00.165Z,25.28
2018-05-01T09:46:28.658Z,24.88
2018-05-01T09:48:56.723Z,24.93
2018-05-01T09:51:24.667Z,25.83
2018-05-01T09:53:53.712Z,27.81
2018-05-01T09:56:22.110Z,29.17
2018-05-01T09:58:50.523Z,27.93
2018-05-01T10:01:19.131Z,27.92
2018-05-01T10:03:47.555Z,28.03
2018-05-01T10:06:16.012Z,29.15
2018-05-01T10:08:45.623Z,27.50
2018-05-01T10:11:14.040Z,26.22
2018-05-01T10:13:42.446Z,25.84
2018-05-01T10:16:10.889Z,25.38
2018-05-01T10:18:39.338Z,24.79
2018-05-01T10:21:07.782Z,23.00
2018-05-01T10:23:36.240Z,23.09
2018-05-01T10:26:04.655Z,22.07
2018-05-01T10:28:33.113Z,22.33
2018-05-01T10:31:01.596Z,23.15
2018-05-01T10:33:30.064Z,25.75
2018-05-01T10:35:58.538Z,24.36
2018-05-01T10:38:27.007Z,23.45
2018-05-01T10:40:55.407Z,24.57
2018-05-01T10:43:23.867Z,25.42
2018-05-01T10:45:52.327Z,26.63
2018-05-01T10:48:20.761Z,27.07
2018-05-01T10:50:49.200Z,26.56
2018-05-01T10:53:17.605Z,25.43
2018-05-01T10:55:46.039Z,24.69
2018-05-01T10:58:14.447Z,24.43
2018-05-01T11:00:42.975Z,24.22
2018-05-01T11:03:11.323Z,24.22
2018-05-01T11:05:39.753Z,23.77
2018-05-01T11:08:08.148Z,24.10
2018-05-01T11:10:36.603Z,24.46
2018-05-01T11:13:05.102Z,24.11
2018-05-01T11:15:33.515Z,23.71
2018-05-01T11:18:01.947Z,24.75
2018-05-01T11:20:30.374Z,26.65
2018-05-01T11:22:58.867Z,26.11
2018-05-01T11:25:27.286Z,25.76
2018-05-01T11:27:55.758Z,25.99
2018-05-01T11:30:24.222Z,25.72
2018-05-01T11:32:52.659Z,26.16
2018-05-01T11:35:21.215Z,25.86
2018-05-01T11:37:49.659Z,28.36
2018-05-01T11:40:18.171Z,30.07
2018-05-01T11:42:47.319Z,31.15
2018-05-01T11:45:15.748Z,33.97
2018-05-01T11:47:44.187Z,33.95
2018-05-01T11:50:13.196Z,35.75
2018-05-01T11:52:41.643Z,36.36
2018-05-01T11:55:10.077Z,36.71
2018-05-01T11:57:38.505Z,37.35
2018-05-01T12:00:07.001Z,38.17
2018-05-01T12:02:35.471Z,38.37
2018-05-01T12:05:03.910Z,39.70
2018-05-01T12:07:32.311Z,40.25
2018-05-01T12:10:00.726Z,40.51
2018-05-01T12:12:29.141Z,40.65
2018-05-01T12:14:57.566Z,41.76
2018-05-01T12:17:26.030Z,42.06
2018-05-01T12:19:54.504Z,42.18
2018-05-01T12:22:22.943Z,41.03
2018-05-01T12:24:51.371Z,40.36
2018-05-01T12:27:19.882Z,38.65
2018-05-01T12:29:48.359Z,38.86
2018-05-01T12:32:16.796Z,37.44
2018-05-01T12:34:45.215Z,38.19
2018-05-01T12:37:13.612Z,39.07
2018-05-01T12:39:42.046Z,39.61
2018-05-01T12:42:10.538Z,38.88
2018-05-01T12:44:39.086Z,38.03
2018-05-01T12:47:07.540Z,37.46
2018-05-01T12:49:35.984Z,37.72
2018-05-01T12:52:04.492Z,35.89
2018-05-01T12:54:32.935Z,34.59
2018-05-01T12:57:01.360Z,31.25
2018-05-01T12:59:29.806Z,29.79
2018-05-01T13:01:58.260Z,28.51
2018-05-01T13:04:26.667Z,26.12
2018-05-01T13:06:55.111Z,24.33
2018-05-01T13:09:23.537Z,23.18
2018-05-01T13:11:51.958Z,21.87
2018-05-01T13:14:20.412Z,21.63
2018-05-01T13:16:48.814Z,21.12
2018-05-01T13:19:17.205Z,20.76
2018-05-01T13:21:45.661Z,21.60
2018-05-01T13:24:14.479Z,20.85
2018-05-01T13:26:42.937Z,19.33
2018-05-01T13:29:11.463Z,18.42
2018-05-01T13:31:40.239Z,17.15
2018-05-01T13:34:08.652Z,16.15
2018-05-01T13:36:37.097Z,15.03
2018-05-01T13:39:05.979Z,13.81
2018-05-01T13:41:34.388Z,12.97
2018-05-01T13:44:02.822Z,12.43
2018-05-01T13:46:31.325Z,12.92
2018-05-01T13:48:59.793Z,13.46
2018-05-01T13:51:28.230Z,11.75
2018-05-01T13:53:56.651Z,12.58
2018-05-01T13:56:25.094Z,11.67
2018-05-01T13:58:53.541Z,14.04
2018-05-01T14:01:21.995Z,12.80
2018-05-01T14:03:50.426Z,12.89
2018-05-01T14:06:18.848Z,13.63
2018-05-01T14:08:47.265Z,13.45
2018-05-01T14:11:15.748Z,13.02
2018-05-01T14:13:44.181Z,13.57
2018-05-01T14:16:12.633Z,12.76
2018-05-01T14:18:41.039Z,11.52
2018-05-01T14:21:09.492Z,10.49
2018-05-01T14:23:37.892Z,10.66
2018-05-01T14:26:06.304Z,9.70
2018-05-01T14:28:34.772Z,7.78
2018-05-01T14:31:03.299Z,8.34
2018-05-01T14:33:31.777Z,8.28
2018-05-01T14:36:00.137Z,7.47
2018-05-01T14:38:28.580Z,7.68
2018-05-01T14:40:56.970Z,7.69
2018-05-01T14:43:25.439Z,7.56
2018-05-01T14:45:53.843Z,7.58
2018-05-01T14:48:22.229Z,8.60
2018-05-01T14:50:50.660Z,7.38
2018-05-01T14:53:19.075Z,8.26
2018-05-01T14:55:47.547Z,8.93
2018-05-01T14:58:15.964Z,9.93
2018-05-01T15:00:44.402Z,9.96
2018-05-01T15:03:13.053Z,9.43
2018-05-01T15:05:41.428Z,9.84
2018-05-01T15:08:09.859Z,9.77
2018-05-01T15:10:38.299Z,9.40
2018-05-01T15:13:06.770Z,12.11
2018-05-01T15:15:35.231Z,17.50
2018-05-01T15:18:03.685Z,22.17
2018-05-01T15:20:32.150Z,26.61
2018-05-01T15:23:00.611Z,29.46
2018-05-01T15:25:29.143Z,31.41
2018-05-01T15:27:57.757Z,32.75
2018-05-01T15:30:26.260Z,33.54
2018-05-01T15:32:54.718Z,34.24
2018-05-01T15:35:23.241Z,35.30
2018-05-01T15:37:51.754Z,35.88
2018-05-01T15:40:20.267Z,35.78
2018-05-01T15:42:48.799Z,34.56
2018-05-01T15:45:17.510Z,34.10
2018-05-01T15:47:45.911Z,33.27
2018-05-01T15:50:14.338Z,32.97
2018-05-01T15:52:42.751Z,33.55
2018-05-01T15:55:11.215Z,33.07
2018-05-01T15:57:39.618Z,33.42
2018-05-01T16:00:08.043Z,34.69
2018-05-01T16:02:36.545Z,34.87
2018-05-01T16:05:04.999Z,34.90
2018-05-01T16:07:33.397Z,35.33
2018-05-01T16:10:01.897Z,35.31
2018-05-01T16:12:30.323Z,36.73
2018-05-01T16:14:58.794Z,37.24
2018-05-01T16:17:27.180Z,37.46
2018-05-01T16:19:55.632Z,37.47
2018-05-01T16:22:24.048Z,38.08
2018-05-01T16:24:52.466Z,38.58
2018-05-01T16:27:20.911Z,38.17
2018-05-01T16:29:49.354Z,38.05
2018-05-01T16:32:17.783Z,38.30
2018-05-01T16:34:46.203Z,38.36
2018-05-01T16:37:14.666Z,38.75
2018-05-01T16:39:43.079Z,39.60
2018-05-01T16:42:11.483Z,39.50
2018-05-01T16:44:39.941Z,40.34
2018-05-01T16:47:08.406Z,40.38
2018-05-01T16:49:36.828Z,41.47
2018-05-01T16:52:05.295Z,42.83
2018-05-01T16:54:33.754Z,43.58
2018-05-01T16:57:02.176Z,43.94
2018-05-01T16:59:30.588Z,44.85
2018-05-01T17:01:59.060Z,44.99
2018-05-01T17:04:27.518Z,45.04
2018-05-01T17:06:55.998Z,45.27
2018-05-01T17:09:24.518Z,45.70
2018-05-01T17:11:53.006Z,46.33
2018-05-01T17:14:21.653Z,46.62
2018-05-01T17:16:50.068Z,46.84
2018-05-01T17:19:18.527Z,47.70
2018-05-01T17:21:46.987Z,48.55
2018-05-01T17:24:15.499Z,49.34
2018-05-01T17:26:43.942Z,49.40
2018-05-01T17:29:12.390Z,49.57
2018-05-01T17:31:40.852Z,49.30
2018-05-01T17:34:09.304Z,50.10
2018-05-01T17:36:37.858Z,50.05
2018-05-01T17:39:06.420Z,50.24
2018-05-01T17:41:34.927Z,49.80
2018-05-01T17:44:03.379Z,50.08
2018-05-01T17:46:31.817Z,51.05
2018-05-01T17:49:00.237Z,50.46
2018-05-01T17:51:28.767Z,52.64
2018-05-01T17:53:57.212Z,53.06
2018-05-01T17:56:25.608Z,53.68
2018-05-01T17:58:54.052Z,53.66
2018-05-01T18:01:22.463Z,53.61
2018-05-01T18:03:50.888Z,54.23
2018-05-01T18:06:19.309Z,54.48
2018-05-01T18:08:47.773Z,55.08
2018-05-01T18:11:16.251Z,54.95
2018-05-01T18:13:44.727Z,54.94
2018-05-01T18:16:13.157Z,55.89
2018-05-01T18:18:41.638Z,56.97
2018-05-01T18:21:10.048Z,57.46
2018-05-01T18:23:38.477Z,57.35
2018-05-01T18:26:06.950Z,57.48
2018-05-01T18:28:35.415Z,57.05
2018-05-01T18:31:03.833Z,57.49
2018-05-01T18:33:32.257Z,57.74
2018-05-01T18:36:00.761Z,58.15
2018-05-01T18:38:29.214Z,58.40
2018-05-01T18:40:57.600Z,58.06
2018-05-01T18:43:26.086Z,57.72
2018-05-01T18:45:54.555Z,57.82
2018-05-01T18:48:22.996Z,56.70
2018-05-01T18:50:51.515Z,58.48
2018-05-01T18:53:19.884Z,58.75
2018-05-01T18:55:48.308Z,59.65
2018-05-01T18:58:16.817Z,58.61
2018-05-01T19:00:45.226Z,59.08
2018-05-01T19:03:13.781Z,58.73
2018-05-01T19:05:42.205Z,57.03
2018-05-01T19:08:10.607Z,52.51
2018-05-01T19:10:39.044Z,50.73
2018-05-01T19:13:07.442Z,48.17
2018-05-01T19:15:35.971Z,47.23
2018-05-01T19:18:04.414Z,46.09
2018-05-01T19:20:32.879Z,44.93
2018-05-01T19:23:01.275Z,44.32
2018-05-01T19:25:29.757Z,43.90
2018-05-01T19:27:58.162Z,43.93
2018-05-01T19:30:26.610Z,43.53
2018-05-01T19:32:55.034Z,43.55
2018-05-01T19:35:23.576Z,43.53
2018-05-01T19:37:52.077Z,43.43
2018-05-01T19:40:20.517Z,43.07
2018-05-01T19:42:48.951Z,43.37
2018-05-01T19:45:17.428Z,43.42
2018-05-01T19:47:45.828Z,43.79
2018-05-01T19:50:14.318Z,43.56
2018-05-01T19:52:42.753Z,42.74
2018-05-01T19:55:11.222Z,42.66
2018-05-01T19:57:39.640Z,42.40
2018-05-01T20:00:08.090Z,42.79
2018-05-01T20:02:36.525Z,42.67
2018-05-01T20:05:05.086Z,42.25
2018-05-01T20:07:33.535Z,42.06
2018-05-01T20:10:01.975Z,41.87
2018-05-01T20:12:30.396Z,41.66
2018-05-01T20:14:58.861Z,41.46
2018-05-01T20:17:27.275Z,41.42
2018-05-01T20:19:55.703Z,42.07
2018-05-01T20:22:24.143Z,43.05
2018-05-01T20:24:52.595Z,43.58
2018-05-01T20:27:21.021Z,43.88
2018-05-01T20:29:49.472Z,43.90
2018-05-01T20:32:17.863Z,44.83
2018-05-01T20:34:46.341Z,44.71
2018-05-01T20:37:14.756Z,44.83
2018-05-01T20:39:43.229Z,45.33
2018-05-01T20:42:11.677Z,45.38
2018-05-01T20:44:40.165Z,46.10
2018-05-01T20:47:08.581Z,46.74
2018-05-01T20:49:37.012Z,47.12
2018-05-01T20:52:06.267Z,46.79
2018-05-01T20:54:34.664Z,47.11
2018-05-01T20:57:03.235Z,47.14
2018-05-01T20:59:31.752Z,46.83
2018-05-01T21:02:00.176Z,46.45
2018-05-01T21:04:28.634Z,46.52
2018-05-01T21:06:57.081Z,46.56
2018-05-01T21:09:25.539Z,46.38
2018-05-01T21:11:53.956Z,46.12
2018-05-01T21:14:22.411Z,46.13
2018-05-01T21:16:50.834Z,46.41
2018-05-01T21:19:19.323Z,47.08
2018-05-01T21:21:47.742Z,48.68
2018-05-01T21:24:16.172Z,51.41
2018-05-01T21:26:44.609Z,51.11
2018-05-01T21:29:13.062Z,52.21
2018-05-01T21:31:41.518Z,53.02
2018-05-01T21:34:09.985Z,52.54
2018-05-01T21:36:38.422Z,52.21
2018-05-01T21:39:06.867Z,53.34
2018-05-01T21:41:35.304Z,53.44
2018-05-01T21:44:03.755Z,54.71
2018-05-01T21:46:32.289Z,54.14
2018-05-01T21:49:00.675Z,54.61
2018-05-01T21:51:29.129Z,54.55
2018-05-01T21:53:57.567Z,56.43
2018-05-01T21:56:26.040Z,55.75
2018-05-01T21:58:54.439Z,54.30
2018-05-01T22:01:22.930Z,55.83
2018-05-01T22:03:51.396Z,55.98
2018-05-01T22:06:19.808Z,55.41
2018-05-01T22:08:48.278Z,56.13
2018-05-01T22:11:16.751Z,55.15
2018-05-01T22:13:45.199Z,54.86
2018-05-01T22:16:13.760Z,54.49
2018-05-01T22:18:42.208Z,54.39
2018-05-01T22:21:10.592Z,54.70
2018-05-01T22:23:39.036Z,55.23
2018-05-01T22:26:07.460Z,55.37
2018-05-01T22:28:35.874Z,56.74
2018-05-01T22:31:04.330Z,55.47
2018-05-01T22:33:32.834Z,56.39
2018-05-01T22:36:01.238Z,57.32
2018-05-01T22:38:29.667Z,58.31
2018-05-01T22:40:58.075Z,58.39
2018-05-01T22:43:26.511Z,58.47
2018-05-01T22:45:54.934Z,58.57
2018-05-01T22:48:23.411Z,59.57
2018-05-01T22:50:51.828Z,60.76
2018-05-01T22:53:20.297Z,60.78
2018-05-01T22:55:48.759Z,59.67
2018-05-01T22:58:17.155Z,58.94
2018-05-01T23:00:45.583Z,58.98
2018-05-01T23:03:14.035Z,59.83
2018-05-01T23:05:42.516Z,60.85
2018-05-01T23:08:10.970Z,59.63
2018-05-01T23:10:39.412Z,60.18
2018-05-01T23:13:07.804Z,59.32
2018-05-01T23:15:36.241Z,60.17
2018-05-01T23:18:04.695Z,60.85
2018-05-01T23:20:33.136Z,58.74
2018-05-01T23:23:01.528Z,59.86
2018-05-01T23:25:29.971Z,59.87
2018-05-01T23:27:58.420Z,60.30
2018-05-01T23:30:26.854Z,60.42
2018-05-01T23:32:55.259Z,59.99
2018-05-01T23:35:23.671Z,61.35
2018-05-01T23:37:52.155Z,61.18
2018-05-01T23:40:20.567Z,61.10
2018-05-01T23:42:49.036Z,60.84
2018-05-01T23:45:17.502Z,61.84
2018-05-01T23:47:45.929Z,61.91
2018-05-01T23:50:14.404Z,61.62
2018-05-01T23:52:42.951Z,61.67
2018-05-01T23:55:11.359Z,62.16
2018-05-01T23:57:39.846Z,62.81
